CheckWX is a tool to help pilots better visualize weather data.  It is not intended as a substitute for an official pre-flight weather briefing.

12:22:05 UTC

LTBX TAF
Samandıra Air Base Airport
Ümraniye, Turkey
TAF LTBX 221040Z 2212/2221 03017KT CAVOK BECMG 2215/2218 03007KT

Mar-22@
12:00 UTC

Mar-22 @ 12:00 UTC

Mar-22@
15:00 UTC

Mar-22 @ 15:00 UTC

TAF LTBX 221040Z 2212/2221 03017KT CAVOK
Wind
  • 030° at 17 KTS
Conditions
No significant weather
Cloud Levels
  • No significant clouds

Mar-22@
15:00 UTC

Mar-22 @ 15:00 UTC

Mar-22@
21:00 UTC

Mar-22 @ 21:00 UTC

BECMG 2215/2218 03007KT

Becoming

Becoming Conditions expected by Fri, Mar 22, 2019 @ 18:00 UTC

Wind
  • 030° at 7 KTS
Conditions
No significant weather
Cloud Levels
  • No significant clouds